Current Weather

Rafha

Rafha, Saudi Arabia (OERF)

Report from: Monday, July 22, 2024 1:00 PM +03
Current time: Monday, July 22, 2024 1:16 PM +03

Nearby weather – Weather history – Daily summaries
Weather forecast

Temperature42.0°C (107.6°F)
Heat index39.1°C (102.3°F)
Dew point4.0°C (39.2°F)
Winds 9 kts (4.6 m/s, 10.4 mph) West (280°)
Clouds Sky clear
Altimeter29.62 in.Hg (1003 mB)
Relative humidity10 %
Density altitude3,487 ft. (1,063 m)
Remarks Ceiling and visibility OK
No significant changes expected in the next two hours
Flight conditions Visual Meteorological Conditions
Raw dataOERF 221000Z 28009KT CAVOK 42/04 Q1003 NOSIG
An error has occurred. This application may no longer respond until reloaded. Reload 🗙